Time;durP1;ratioP1;P1;durP2;ratioP2;P2;SDS_P1;SDS_P2;PMS_P1;PMS_P2;Temp;Humidity;BMP_temperature;BMP_pressure;BME280_temperature;BME280_humidity;BME280_pressure;Samples;Min_cycle;Max_cycle;Signal;HPM_P1;HPM_P2
2023/01/10 00:01:28;;;;;;;1.63;1.52;;;;;;;-20.36;75.58;101190.91;4921896;29;20047;-86
2023/01/10 00:03:55;;;;;;;1.80;1.70;;;;;;;-20.35;75.47;101199.50;4954517;29;20054;-84
2023/01/10 00:06:22;;;;;;;1.65;1.55;;;;;;;-20.32;75.53;101184.06;4954753;29;20055;-84
2023/01/10 00:08:49;;;;;;;1.48;1.38;;;;;;;-20.30;75.41;101194.34;4954113;29;20062;-85
2023/01/10 00:14:05;;;;;;;1.40;1.30;;;;;;;-20.22;75.23;101190.09;4954296;29;20466;-84
2023/01/10 00:16:32;;;;;;;1.40;1.30;;;;;;;-20.21;75.40;101182.38;4954800;29;20079;-83
2023/01/10 00:18:59;;;;;;;1.40;1.30;;;;;;;-20.19;75.35;101179.81;4954256;28;20544;-84
2023/01/10 00:21:30;;;;;;;1.40;1.30;;;;;;;-20.26;75.09;101178.94;4937317;29;20403;-86
2023/01/10 00:24:16;;;;;;;1.63;1.52;;;;;;;-20.20;75.38;101191.81;4954597;28;20075;-85
2023/01/10 00:26:50;;;;;;;1.80;1.70;;;;;;;-20.15;75.38;101192.66;4955922;29;20532;-85
2023/01/10 00:29:24;;;;;;;1.55;1.45;;;;;;;-20.24;75.33;101178.94;4938860;29;20540;-86
2023/01/10 00:31:51;;;;;;;1.60;1.50;;;;;;;-20.19;75.19;101184.94;4937589;29;20055;-85
2023/01/10 00:34:18;;;;;;;1.50;1.40;;;;;;;-20.13;75.36;101182.38;4921983;29;20134;-83
2023/01/10 00:36:46;;;;;;;1.70;1.60;;;;;;;-20.09;75.51;101184.09;4955492;29;20466;-85
2023/01/10 00:39:14;;;;;;;1.70;1.60;;;;;;;-20.08;75.38;101177.25;4973141;28;20050;-85
2023/01/10 00:44:27;;;;;;;1.50;1.40;;;;;;;-19.95;75.50;101146.41;4955070;29;20638;-85
2023/01/10 00:46:54;;;;;;;1.50;1.40;;;;;;;-19.99;75.20;101172.13;4954355;28;20074;-85
2023/01/10 00:49:22;;;;;;;1.40;1.30;;;;;;;-20.01;75.25;101169.53;4954453;29;20055;-83
2023/01/10 00:51:49;;;;;;;1.60;1.50;;;;;;;-19.99;75.21;101172.97;4954522;29;20055;-85
2023/01/10 00:54:16;;;;;;;1.52;1.42;;;;;;;-19.91;75.33;101172.97;4954821;29;20051;-87
2023/01/10 00:56:43;;;;;;;1.48;1.38;;;;;;;-20.01;75.08;101148.97;4954980;29;20118;-84
2023/01/10 00:59:10;;;;;;;1.40;1.30;;;;;;;-19.95;75.27;101155.81;4937632;29;20055;-84
2023/01/10 01:01:37;;;;;;;1.60;1.50;;;;;;;-19.91;75.06;101144.69;4961176;29;20054;-83
2023/01/10 01:04:04;;;;;;;1.40;1.30;;;;;;;-19.86;75.32;101153.25;4961983;29;20047;-84
2023/01/10 01:06:31;;;;;;;1.30;1.20;;;;;;;-19.84;75.22;101148.97;4964179;29;20055;-84
2023/01/10 01:08:58;;;;;;;1.60;1.50;;;;;;;-19.87;75.18;101142.97;4944819;29;20050;-83
2023/01/10 01:11:28;;;;;;;1.67;1.58;;;;;;;-19.83;74.99;101137.81;4965455;29;20061;-85
2023/01/10 01:13:58;;;;;;;1.40;1.30;;;;;;;-19.86;75.12;101129.28;4962145;29;20047;-84
2023/01/10 01:16:25;;;;;;;1.30;1.20;;;;;;;-19.77;74.85;101132.69;4958047;29;20055;-85
2023/01/10 01:19:00;;;;;;;1.55;1.45;;;;;;;-19.77;74.72;101135.28;4936238;29;20146;-85
2023/01/10 01:21:27;;;;;;;1.42;1.33;;;;;;;-19.79;74.93;101133.56;4953896;29;20062;-85
2023/01/10 01:23:57;;;;;;;1.58;1.48;;;;;;;-19.72;74.89;101137.81;4953817;29;20137;-85
2023/01/10 01:26:25;;;;;;;1.50;1.40;;;;;;;-19.74;74.80;101140.41;4937313;29;20146;-86
2023/01/10 01:28:52;;;;;;;1.42;1.33;;;;;;;-19.66;74.88;101147.25;4955331;29;20051;-84
2023/01/10 01:31:19;;;;;;;1.60;1.50;;;;;;;-19.61;74.90;101136.06;4957002;29;20059;-85
2023/01/10 01:33:46;;;;;;;1.40;1.30;;;;;;;-19.56;74.89;101146.34;4940053;29;20055;-84
2023/01/10 01:36:14;;;;;;;1.60;1.50;;;;;;;-19.53;74.71;101143.75;4954364;28;20094;-84
2023/01/10 01:38:41;;;;;;;1.40;1.30;;;;;;;-19.52;74.80;101142.88;4954515;29;20184;-86
2023/01/10 01:43:59;;;;;;;1.30;1.20;;;;;;;-19.46;74.76;101148.03;4963396;28;20058;-85
2023/01/10 01:46:27;;;;;;;1.30;1.20;;;;;;;-19.45;74.68;101142.03;4978795;28;20478;-84
2023/01/10 01:48:54;;;;;;;1.50;1.40;;;;;;;-19.42;74.78;101134.28;4976315;28;20047;-85
2023/01/10 01:51:25;;;;;;;1.52;1.42;;;;;;;-19.31;74.82;101135.13;4975361;28;20150;-84
2023/01/10 01:53:59;;;;;;;1.40;1.30;;;;;;;-19.23;74.80;101138.53;4977782;28;20070;-84
2023/01/10 01:56:32;;;;;;;1.48;1.38;;;;;;;-19.17;74.76;101135.06;4959304;28;20050;-84
2023/01/10 01:59:15;;;;;;;1.40;1.30;;;;;;;-19.15;74.53;101137.66;4955648;28;20502;-85
2023/01/10 02:01:44;;;;;;;1.63;1.52;;;;;;;-19.16;74.54;101136.81;4955246;28;20051;-84
2023/01/10 02:04:19;;;;;;;1.40;1.30;;;;;;;-19.17;74.41;101134.22;4971719;28;20094;-83
2023/01/10 02:06:48;;;;;;;1.63;1.52;;;;;;;-19.14;74.34;101140.19;4955666;28;20407;-85
2023/01/10 02:09:21;;;;;;;1.40;1.30;;;;;;;-19.10;74.52;101129.03;4972021;28;20050;-84
2023/01/10 02:11:49;;;;;;;1.40;1.30;;;;;;;-19.06;74.43;101132.44;4972087;28;20055;-84
2023/01/10 02:14:16;;;;;;;1.40;1.30;;;;;;;-19.06;74.20;101145.31;4972861;28;20133;-88
2023/01/10 02:16:46;;;;;;;1.38;1.27;;;;;;;-19.14;74.13;101139.34;4947818;28;20077;-88
2023/01/10 02:19:33;;;;;;;1.50;1.40;;;;;;;-19.09;74.16;101147.91;4961444;28;20055;-88
2023/01/10 02:22:40;;;;;;;1.48;1.38;;;;;;;-19.04;74.26;101126.47;4983521;28;20510;-88
2023/01/10 02:25:27;;;;;;;1.42;1.33;;;;;;;-19.02;74.21;101139.31;4863539;29;20063;-87
2023/01/10 02:28:11;;;;;;;1.50;1.40;;;;;;;-19.03;74.04;101128.16;4889734;29;20060;-93
2023/01/10 02:30:44;;;;;;;1.50;1.40;;;;;;;-19.08;74.01;101136.78;4896843;29;20061;-91
2023/01/10 02:33:21;;;;;;;1.40;1.30;;;;;;;-19.00;74.25;101144.47;4863011;29;20060;-85
2023/01/10 02:36:09;;;;;;;1.50;1.40;;;;;;;-18.94;74.42;101137.56;4895002;29;20124;-85
2023/01/10 02:38:41;;;;;;;1.52;1.42;;;;;;;-18.93;73.98;101139.28;4884455;29;20099;-86
2023/01/10 02:41:32;;;;;;;1.50;1.40;;;;;;;-18.86;74.34;101143.53;4868475;29;20057;-84
2023/01/10 02:44:06;;;;;;;1.40;1.30;;;;;;;-18.85;74.24;101142.66;4883998;29;20064;-85
2023/01/10 02:46:36;;;;;;;1.40;1.30;;;;;;;-18.86;74.23;101138.41;4878094;29;20060;-85
2023/01/10 02:49:05;;;;;;;1.40;1.30;;;;;;;-18.78;74.05;101142.63;4880696;29;20145;-86
2023/01/10 02:51:35;;;;;;;1.40;1.30;;;;;;;-18.73;74.07;101139.16;4866872;29;20068;-87
2023/01/10 02:54:12;;;;;;;1.40;1.30;;;;;;;-18.74;74.10;101134.00;4882865;29;20053;-86
2023/01/10 02:57:16;;;;;;;1.50;1.40;;;;;;;-18.77;74.06;101149.50;4885821;29;20091;-87
2023/01/10 03:00:07;;;;;;;1.40;1.30;;;;;;;-18.69;74.15;101142.56;4899859;29;20088;-88
2023/01/10 03:02:57;;;;;;;1.45;1.35;;;;;;;-18.65;73.96;101150.28;4955908;28;20058;-88
2023/01/10 03:05:50;;;;;;;1.55;1.45;;;;;;;-18.64;74.03;101148.53;4979116;28;20086;-87
2023/01/10 03:08:29;;;;;;;1.30;1.20;;;;;;;-18.62;73.90;101147.66;4918513;29;20052;-88
2023/01/10 03:11:05;;;;;;;1.40;1.30;;;;;;;-18.66;73.93;101143.38;4916845;29;20144;-90
2023/01/10 03:13:52;;;;;;;1.40;1.30;;;;;;;-18.59;74.05;101141.66;4884691;29;20424;-88
2023/01/10 03:16:24;;;;;;;1.20;1.20;;;;;;;-18.55;74.03;101145.94;4915731;29;20056;-87
2023/01/10 03:18:55;;;;;;;1.23;1.20;;;;;;;-18.56;74.07;101146.78;4902283;29;20052;-88
2023/01/10 03:21:23;;;;;;;1.50;1.40;;;;;;;-18.50;74.03;101145.91;4916400;29;20116;-87
2023/01/10 03:23:53;;;;;;;1.40;1.30;;;;;;;-18.49;74.22;101135.56;4916110;29;20534;-88
2023/01/10 03:26:28;;;;;;;1.40;1.30;;;;;;;-18.44;74.19;101136.41;4908239;29;20124;-87
2023/01/10 03:28:56;;;;;;;;;;;;;;;-18.39;74.40;101142.38;4921337;29;20475;-87
2023/01/10 03:31:51;;;;;;;1.20;1.20;;;;;;;-18.47;74.15;101135.56;4911682;29;19926;-88
2023/01/10 03:34:19;;;;;;;1.50;1.40;;;;;;;-18.50;73.96;101144.19;4933141;29;20037;-85
2023/01/10 03:36:49;;;;;;;1.50;1.40;;;;;;;-18.48;74.04;101142.47;4915225;29;20131;-88
2023/01/10 03:39:40;;;;;;;1.60;1.50;;;;;;;-18.41;74.34;101138.09;4589947;29;9999813;-89
2023/01/10 03:44:42;;;;;;;1.33;1.23;;;;;;;-18.34;74.40;101150.09;4935545;29;20055;-93
2023/01/10 03:45:34;;;;;;;1.67;1.58;;;;;;;-18.36;74.22;101134.63;4952331;29;20063;-83
2023/01/10 03:48:02;;;;;;;1.27;1.23;;;;;;;-18.25;74.39;101133.69;4970273;28;20145;-88
2023/01/10 03:50:29;;;;;;;1.42;1.33;;;;;;;-18.19;74.40;101149.97;4960391;28;20030;-89
2023/01/10 03:53:22;;;;;;;1.50;1.40;;;;;;;-18.17;74.34;101163.72;4958229;28;20095;-89
2023/01/10 03:55:49;;;;;;;1.48;1.38;;;;;;;-18.18;74.14;101163.72;4977376;28;20082;-88
2023/01/10 03:58:20;;;;;;;1.60;1.50;;;;;;;-18.18;74.18;101161.13;4980839;28;20057;-89
2023/01/10 04:00:48;;;;;;;1.63;1.52;;;;;;;-18.13;74.33;101154.22;4945956;28;20102;-84
2023/01/10 04:03:15;;;;;;;1.40;1.30;;;;;;;-18.09;73.90;101155.94;4984103;28;20101;-88
2023/01/10 04:05:42;;;;;;;1.55;1.45;;;;;;;-18.12;73.90;101161.09;4968110;28;20047;-88
2023/01/10 04:08:10;;;;;;;1.20;1.20;;;;;;;-18.16;73.93;101162.00;4962423;29;20118;-86
2023/01/10 04:10:37;;;;;;;1.45;1.35;;;;;;;-18.10;74.09;101161.09;4957139;29;20057;-85
2023/01/10 04:13:04;;;;;;;1.50;1.40;;;;;;;-18.03;73.84;101168.75;4923625;29;20082;-84
2023/01/10 04:15:32;;;;;;;1.27;1.20;;;;;;;-17.97;74.19;101168.72;4946841;29;20051;-91
2023/01/10 04:17:59;;;;;;;1.52;1.42;;;;;;;-17.87;74.11;101173.78;4943106;28;20079;-87
2023/01/10 04:20:26;;;;;;;1.35;1.25;;;;;;;-17.85;73.96;101172.06;4941738;28;20099;-88
2023/01/10 04:25:47;;;;;;;1.40;1.30;;;;;;;-17.87;74.07;101166.94;4895545;29;20139;-86
2023/01/10 04:28:14;;;;;;;1.30;1.20;;;;;;;-17.78;74.16;101177.13;4898756;29;20143;-86
2023/01/10 04:30:41;;;;;;;1.45;1.35;;;;;;;-17.74;74.07;101176.25;4922220;29;20415;-86
2023/01/10 04:33:10;;;;;;;1.10;1.10;;;;;;;-17.70;73.95;101177.06;4903364;29;20056;-89
2023/01/10 04:35:37;;;;;;;1.60;1.50;;;;;;;-17.71;74.06;101173.63;4924670;29;20067;-88
2023/01/10 04:38:04;;;;;;;1.40;1.30;;;;;;;-17.66;73.98;101171.03;4914366;29;20056;-93
2023/01/10 04:40:32;;;;;;;1.45;1.35;;;;;;;-17.67;73.72;101166.72;4895331;29;20044;-91
2023/01/10 04:43:05;;;;;;;1.48;1.38;;;;;;;-17.56;73.73;101182.13;4927948;29;20096;-85
2023/01/10 04:45:32;;;;;;;1.20;1.20;;;;;;;-17.51;73.71;101181.19;4922933;29;20434;-90
2023/01/10 04:47:59;;;;;;;1.50;1.40;;;;;;;-17.53;73.59;101177.78;4907157;29;20052;-86
2023/01/10 04:50:26;;;;;;;1.45;1.35;;;;;;;-17.56;73.51;101179.53;4890759;29;20051;-83
2023/01/10 04:52:56;;;;;;;1.50;1.40;;;;;;;-17.47;73.75;101187.16;4902754;29;20051;-82
2023/01/10 04:55:23;;;;;;;1.38;1.27;;;;;;;-17.38;73.56;101175.91;4914777;29;20052;-82
2023/01/10 04:57:50;;;;;;;1.42;1.33;;;;;;;-17.35;73.80;101173.31;4921236;29;20047;-85
2023/01/10 05:00:21;;;;;;;1.20;1.20;;;;;;;-17.26;74.05;101175.81;4930199;29;20052;-82
2023/01/10 05:02:48;;;;;;;1.40;1.30;;;;;;;-17.19;73.37;101182.59;4908630;29;20059;-82
2023/01/10 05:05:16;;;;;;;1.35;1.25;;;;;;;-17.22;73.52;101181.78;4903854;29;20640;-83
2023/01/10 05:07:44;;;;;;;1.35;1.25;;;;;;;-17.16;73.42;101192.03;4923368;29;20466;-84
2023/01/10 05:10:14;;;;;;;1.17;1.17;;;;;;;-17.09;73.58;101191.09;4900914;29;20075;-82
2023/01/10 05:12:42;;;;;;;1.50;1.40;;;;;;;-17.02;73.20;101199.66;4924368;29;20090;-82
2023/01/10 05:15:09;;;;;;;1.10;1.10;;;;;;;-17.07;73.08;101191.94;4917182;29;20107;-86
2023/01/10 05:17:39;;;;;;;1.50;1.40;;;;;;;-16.99;73.14;101197.88;4936799;29;20040;-86
2023/01/10 05:20:08;;;;;;;1.27;1.17;;;;;;;-16.94;73.09;101211.59;4897150;29;20056;-85
2023/01/10 05:22:35;;;;;;;1.48;1.38;;;;;;;-16.93;72.77;101202.13;4924264;29;20063;-89
2023/01/10 05:25:03;;;;;;;1.48;1.38;;;;;;;-17.01;72.61;101229.75;4942969;29;20056;-91
2023/01/10 05:27:30;;;;;;;1.25;1.20;;;;;;;-16.95;72.81;101227.13;4905896;29;20056;-90
2023/01/10 05:29:58;;;;;;;1.67;1.58;;;;;;;-17.03;72.82;101229.78;4914007;29;20076;-84
2023/01/10 05:32:28;;;;;;;1.00;1.00;;;;;;;-17.02;72.76;101231.47;4556902;29;10000610;-85
2023/01/10 05:34:56;;;;;;;1.38;1.27;;;;;;;-16.93;72.69;101236.56;4910816;29;20380;-84
2023/01/10 05:37:23;;;;;;;1.35;1.25;;;;;;;-16.84;72.75;101241.59;4898612;29;20060;-87
2023/01/10 05:39:50;;;;;;;1.30;1.20;;;;;;;-16.84;72.42;101241.59;4893531;29;20048;-83
2023/01/10 05:42:18;;;;;;;1.30;1.20;;;;;;;-16.81;72.20;101248.47;4912108;29;20572;-83
2023/01/10 05:44:45;;;;;;;1.27;1.20;;;;;;;-16.85;72.02;101249.41;4916977;29;20087;-84
2023/01/10 05:47:12;;;;;;;1.10;1.10;;;;;;;-16.83;72.11;101258.00;4878595;29;20078;-84
2023/01/10 05:49:39;;;;;;;1.50;1.40;;;;;;;-16.77;72.26;101260.47;4911967;29;20082;-83
2023/01/10 05:52:06;;;;;;;1.50;1.40;;;;;;;-16.74;72.20;101244.06;4895465;29;20503;-86
2023/01/10 05:54:35;;;;;;;1.30;1.20;;;;;;;-16.75;72.03;101252.72;4918243;29;20531;-84
2023/01/10 05:57:02;;;;;;;1.58;1.48;;;;;;;-16.74;72.16;101257.00;4901029;29;20403;-87
2023/01/10 05:59:29;;;;;;;1.33;1.23;;;;;;;-16.70;72.22;101264.69;4910104;29;20060;-85
2023/01/10 06:01:57;;;;;;;1.42;1.33;;;;;;;-16.68;72.19;101265.53;4921462;29;20541;-85
2023/01/10 06:04:25;;;;;;;1.40;1.30;;;;;;;-16.62;72.13;101262.03;4908873;29;20499;-86
2023/01/10 06:06:55;;;;;;;1.38;1.27;;;;;;;-16.58;72.13;101270.59;4932226;29;20075;-87
2023/01/10 06:09:22;;;;;;;1.25;1.17;;;;;;;-16.45;71.75;101267.00;4919973;29;20103;-87
2023/01/10 06:11:49;;;;;;;1.40;1.30;;;;;;;-16.47;72.06;101267.00;4918824;29;20146;-86
2023/01/10 06:14:18;;;;;;;1.40;1.30;;;;;;;-16.40;71.74;101267.81;4921221;29;20075;-86
2023/01/10 06:16:46;;;;;;;1.42;1.33;;;;;;;-16.37;71.87;101249.66;4910042;29;20135;-86
2023/01/10 06:19:13;;;;;;;1.40;1.30;;;;;;;-16.32;71.77;101254.78;4897835;29;20111;-85
2023/01/10 06:21:40;;;;;;;1.98;1.88;;;;;;;-16.33;71.97;101261.66;4908815;29;20060;-86
2023/01/10 06:24:09;;;;;;;1.50;1.40;;;;;;;-16.27;72.12;101279.69;4912348;29;20070;-86
2023/01/10 06:26:36;;;;;;;1.60;1.50;;;;;;;-16.18;72.17;101282.19;4942820;29;20043;-87
2023/01/10 06:29:04;;;;;;;1.30;1.20;;;;;;;-16.12;71.98;101289.00;4929150;29;20056;-86
2023/01/10 06:31:31;;;;;;;1.35;1.27;;;;;;;-15.95;71.95;101309.44;4941465;29;20429;-87
2023/01/10 06:33:59;;;;;;;1.38;1.27;;;;;;;-15.90;71.83;101302.47;4939776;29;20055;-86
2023/01/10 06:36:26;;;;;;;1.75;1.65;;;;;;;-15.82;71.78;101297.19;4928003;29;20047;-85
2023/01/10 06:38:53;;;;;;;1.40;1.30;;;;;;;-15.84;71.65;101289.47;4941255;29;20062;-86
2023/01/10 06:41:27;;;;;;;1.40;1.30;;;;;;;-15.83;71.09;101275.66;4923878;29;20054;-88
2023/01/10 06:43:54;;;;;;;1.50;1.40;;;;;;;-15.77;70.33;101291.09;4931063;29;20059;-87
2023/01/10 06:46:21;;;;;;;1.40;1.30;;;;;;;-15.77;70.54;101283.34;4940058;29;20050;-88
2023/01/10 06:48:50;;;;;;;1.50;1.40;;;;;;;-15.74;70.69;101283.28;4921667;29;20072;-88
2023/01/10 06:51:19;;;;;;;1.13;1.13;;;;;;;-15.70;70.09;101291.00;4886068;29;20052;-89
2023/01/10 06:53:46;;;;;;;1.38;1.27;;;;;;;-15.67;69.83;101291.81;4923249;29;20413;-87
2023/01/10 06:56:13;;;;;;;1.40;1.30;;;;;;;-15.68;69.94;101286.63;4938846;29;20118;-87
2023/01/10 06:58:40;;;;;;;1.55;1.45;;;;;;;-15.59;70.15;101305.47;4938009;29;20577;-87
2023/01/10 07:01:16;;;;;;;1.58;1.48;;;;;;;-15.61;69.61;101302.03;4935176;29;20054;-86
2023/01/10 07:03:43;;;;;;;1.25;1.17;;;;;;;-15.62;69.41;101300.34;4919614;29;20051;-87
2023/01/10 07:06:10;;;;;;;1.45;1.35;;;;;;;-15.55;69.15;101303.69;4937738;29;20052;-85
2023/01/10 07:08:45;;;;;;;1.45;1.35;;;;;;;-15.51;68.85;101310.53;4939694;29;20044;-86
2023/01/10 07:11:16;;;;;;;1.65;1.55;;;;;;;-15.44;69.00;101309.56;4907508;29;20134;-86
2023/01/10 07:13:43;;;;;;;1.52;1.42;;;;;;;-15.38;68.79;101304.28;4936114;29;20059;-86
2023/01/10 07:16:13;;;;;;;1.75;1.65;;;;;;;-15.29;68.71;101306.75;4919514;29;20420;-87
2023/01/10 07:18:45;;;;;;;;;;;;;;;-15.25;68.81;101311.88;4936826;29;20464;-86
2023/01/10 07:21:12;;;;;;;1.48;1.38;;;;;;;-15.21;68.64;101305.75;4934640;29;19981;-86
2023/01/10 07:23:39;;;;;;;1.50;1.40;;;;;;;-15.24;67.93;101303.19;4935186;29;20047;-86
2023/01/10 07:26:09;;;;;;;1.45;1.35;;;;;;;-15.20;67.66;101310.06;4931073;29;20051;-86
2023/01/10 07:28:38;;;;;;;1.40;1.30;;;;;;;-15.23;67.40;101297.16;4932885;29;20048;-86
2023/01/10 07:31:05;;;;;;;1.55;1.45;;;;;;;-15.15;67.34;101305.66;4951587;29;20044;-85
2023/01/10 07:33:32;;;;;;;1.45;1.35;;;;;;;-15.11;67.44;101318.53;4948521;29;20066;-87
2023/01/10 07:36:00;;;;;;;1.42;1.33;;;;;;;-15.03;67.37;101327.91;4935703;29;20422;-85
2023/01/10 07:38:28;;;;;;;1.10;1.10;;;;;;;-15.02;66.84;101333.06;4936830;29;20236;-87
2023/01/10 07:40:55;;;;;;;1.50;1.40;;;;;;;-14.99;67.20;101325.22;4939957;29;20467;-88
2023/01/10 07:43:23;;;;;;;1.45;1.35;;;;;;;-14.95;67.50;101307.91;4922798;29;20115;-87
2023/01/10 07:45:50;;;;;;;1.50;1.40;;;;;;;-14.90;67.56;101327.66;4938236;29;20039;-88
2023/01/10 07:48:17;;;;;;;1.45;1.35;;;;;;;-14.93;67.40;101319.09;4949774;29;20056;-86
2023/01/10 07:50:45;;;;;;;1.60;1.50;;;;;;;-14.78;67.43;101336.09;4923030;29;20123;-87
2023/01/10 07:53:12;;;;;;;1.45;1.35;;;;;;;-14.79;66.97;101321.44;4936582;29;20537;-87
2023/01/10 07:55:40;;;;;;;1.40;1.30;;;;;;;-14.78;66.92;101320.53;4934693;29;20048;-86
2023/01/10 07:58:07;;;;;;;1.50;1.40;;;;;;;-14.72;66.59;101310.09;4940996;29;20055;-85
2023/01/10 08:00:34;;;;;;;1.50;1.40;;;;;;;-14.59;66.52;101327.13;4926232;29;20054;-85
2023/01/10 08:03:01;;;;;;;1.55;1.45;;;;;;;-14.54;66.06;101324.44;4945054;29;20047;-86
2023/01/10 08:05:30;;;;;;;1.52;1.42;;;;;;;-14.49;65.63;101313.06;4943746;29;20059;-86
2023/01/10 08:08:03;;;;;;;1.60;1.50;;;;;;;-14.41;65.64;101313.75;4947305;29;20573;-86
2023/01/10 08:10:30;;;;;;;1.33;1.23;;;;;;;-14.41;65.32;101316.34;4947723;29;20066;-90
2023/01/10 08:12:57;;;;;;;1.48;1.38;;;;;;;-14.35;65.20;101304.16;4934047;29;20060;-86
2023/01/10 08:15:35;;;;;;;1.70;1.60;;;;;;;-14.27;65.56;101317.84;4939604;29;20076;-86
2023/01/10 08:18:02;;;;;;;1.45;1.35;;;;;;;-14.27;65.24;101328.22;4949613;29;20052;-85
2023/01/10 08:20:30;;;;;;;1.45;1.35;;;;;;;-14.29;65.23;101320.47;4944479;29;20117;-87
2023/01/10 08:22:58;;;;;;;1.55;1.45;;;;;;;-14.22;65.61;101306.47;4918476;29;20130;-86
2023/01/10 08:25:28;;;;;;;1.63;1.52;;;;;;;-14.19;64.77;101322.00;4595828;28;10000061;-88
2023/01/10 08:27:55;;;;;;;1.60;1.50;;;;;;;-14.22;64.70;101322.06;4939537;29;20059;-86
2023/01/10 08:30:22;;;;;;;1.30;1.20;;;;;;;-14.14;64.60;101327.09;4942967;29;20079;-87
2023/01/10 08:32:51;;;;;;;1.50;1.40;;;;;;;-14.02;64.50;101332.03;4935432;29;20051;-86
2023/01/10 08:35:18;;;;;;;1.52;1.42;;;;;;;-13.90;64.24;101317.91;4929909;29;20139;-89
2023/01/10 08:37:47;;;;;;;1.10;1.10;;;;;;;-13.91;63.69;101310.19;4943301;29;20051;-89
2023/01/10 08:40:16;;;;;;;1.45;1.35;;;;;;;-13.95;63.85;101309.38;4941972;29;20052;-86
2023/01/10 08:42:43;;;;;;;1.52;1.42;;;;;;;-13.89;64.31;101318.81;4940722;29;20523;-86
2023/01/10 08:45:10;;;;;;;1.65;1.55;;;;;;;-13.83;63.77;101321.25;4914575;29;21208;-86
2023/01/10 08:47:41;;;;;;;1.40;1.30;;;;;;;-13.75;63.69;101316.75;4920035;29;20111;-86
2023/01/10 08:50:09;;;;;;;1.15;1.15;;;;;;;-13.70;63.64;101311.44;4936736;29;20162;-84
2023/01/10 08:52:36;;;;;;;1.60;1.50;;;;;;;-13.63;63.48;101311.28;4939118;29;20062;-86
2023/01/10 08:55:06;;;;;;;1.23;1.23;;;;;;;-13.59;63.33;101307.72;4941074;29;20111;-85
2023/01/10 08:57:33;;;;;;;1.42;1.33;;;;;;;-13.66;63.37;101311.34;4938423;29;20051;-86
2023/01/10 09:00:03;;;;;;;1.23;1.23;;;;;;;-13.56;64.00;101333.63;4940613;29;20458;-86
2023/01/10 09:02:34;;;;;;;1.40;1.30;;;;;;;-13.57;64.09;101324.16;4943145;29;20127;-85
2023/01/10 09:05:01;;;;;;;1.33;1.23;;;;;;;-13.61;63.95;101326.84;4942497;29;20060;-84
2023/01/10 09:07:35;;;;;;;1.40;1.30;;;;;;;-13.63;63.31;101315.63;4936805;29;20047;-85
2023/01/10 09:10:03;;;;;;;1.80;1.70;;;;;;;-13.62;63.40;101315.59;4946240;29;20047;-87
2023/01/10 09:15:18;;;;;;;1.65;1.55;;;;;;;-13.56;63.34;101312.84;4941692;29;20059;-88
2023/01/10 09:17:48;;;;;;;1.50;1.40;;;;;;;-13.45;63.39;101307.41;4940056;29;20051;-87
2023/01/10 09:20:16;;;;;;;1.40;1.30;;;;;;;-13.46;63.15;101310.91;4933004;29;20134;-86
2023/01/10 09:22:43;;;;;;;1.25;1.20;;;;;;;-13.49;63.17;101297.13;4941001;29;20055;-88
2023/01/10 09:25:12;;;;;;;1.40;1.30;;;;;;;-13.33;62.94;101314.06;4918335;29;20056;-87
2023/01/10 09:27:39;;;;;;;1.48;1.38;;;;;;;-13.33;62.88;101293.28;4921557;29;20570;-90
2023/01/10 09:30:07;;;;;;;1.38;1.27;;;;;;;-13.30;62.27;101313.13;4946728;29;20076;-88
2023/01/10 09:32:34;;;;;;;1.60;1.50;;;;;;;-13.39;62.25;101312.47;4919494;29;20087;-85
2023/01/10 09:35:02;;;;;;;1.40;1.30;;;;;;;-13.28;62.24;101314.81;4913253;29;20059;-86
2023/01/10 09:37:32;;;;;;;1.58;1.48;;;;;;;-13.28;62.12;101304.41;4919424;29;20052;-88
2023/01/10 09:39:59;;;;;;;1.67;1.58;;;;;;;-13.23;61.63;101299.94;4923715;29;20062;-87
2023/01/10 09:42:44;;;;;;;1.33;1.23;;;;;;;-13.14;61.69;101301.44;4939004;29;20028;-86
2023/01/10 09:45:16;;;;;;;1.52;1.42;;;;;;;-13.08;61.43;101303.91;4938815;29;20062;-88
2023/01/10 09:47:54;;;;;;;1.42;1.33;;;;;;;-13.17;61.24;101304.97;4936223;29;20047;-87
2023/01/10 09:50:37;;;;;;;1.45;1.35;;;;;;;-13.08;61.33;101300.44;4930462;29;20068;-91
2023/01/10 09:53:10;;;;;;;1.55;1.45;;;;;;;-13.08;61.35;101300.44;4934285;29;20044;-90
2023/01/10 09:55:38;;;;;;;1.38;1.27;;;;;;;-13.06;61.25;101298.66;4923695;29;20116;-88
2023/01/10 09:58:15;;;;;;;1.17;1.17;;;;;;;-13.01;60.83;101299.38;4920513;29;20473;-85
2023/01/10 10:00:50;;;;;;;1.60;1.50;;;;;;;-13.06;60.93;101306.44;4923958;29;20079;-87
2023/01/10 10:03:42;;;;;;;1.40;1.30;;;;;;;-13.13;61.09;101297.97;4907590;29;20218;-86
2023/01/10 10:06:11;;;;;;;1.45;1.35;;;;;;;-13.10;61.08;101290.09;4905441;29;20059;-84
2023/01/10 10:08:40;;;;;;;1.45;1.35;;;;;;;-12.98;60.67;101296.72;4909097;29;20107;-85
2023/01/10 10:11:25;;;;;;;1.52;1.42;;;;;;;-12.96;60.89;101303.59;4909949;29;20515;-85
2023/01/10 10:14:05;;;;;;;1.50;1.40;;;;;;;-12.84;60.82;101299.81;4913444;29;20152;-84
2023/01/10 10:16:38;;;;;;;1.52;1.42;;;;;;;-12.86;60.46;101304.22;4909371;29;20062;-85
2023/01/10 10:19:18;;;;;;;1.60;1.50;;;;;;;-13.03;60.35;101290.78;4914072;29;20055;-86
2023/01/10 10:22:04;;;;;;;1.50;1.40;;;;;;;-13.13;59.99;101317.00;4928021;29;20062;-87
2023/01/10 10:24:38;;;;;;;1.30;1.20;;;;;;;-13.12;60.12;101308.31;4927784;29;20052;-86
2023/01/10 10:27:21;;;;;;;1.73;1.63;;;;;;;-13.12;60.43;101290.09;4942133;29;20142;-87
2023/01/10 10:29:57;;;;;;;1.10;1.10;;;;;;;-13.11;60.48;101297.03;4936418;29;20070;-85
2023/01/10 10:32:49;;;;;;;1.45;1.35;;;;;;;-13.10;60.17;101285.72;4944483;29;20056;-85
2023/01/10 10:35:29;;;;;;;1.70;1.60;;;;;;;-13.05;60.25;101296.03;4946485;29;20055;-85
2023/01/10 10:38:28;;;;;;;1.70;1.60;;;;;;;-13.00;60.02;101288.09;4926258;29;20099;-86
2023/01/10 10:40:57;;;;;;;1.70;1.60;;;;;;;-13.04;59.97;101287.31;4940957;29;20546;-86
2023/01/10 10:43:30;;;;;;;1.58;1.48;;;;;;;-13.04;59.89;101286.47;4924343;29;20051;-85
2023/01/10 10:46:01;;;;;;;1.10;1.10;;;;;;;-12.98;60.14;101291.53;4940964;28;20068;-86
2023/01/10 10:48:31;;;;;;;1.40;1.30;;;;;;;-12.93;60.25;101287.06;4929977;29;20083;-85
2023/01/10 10:51:00;;;;;;;1.50;1.40;;;;;;;-12.91;59.97;101290.44;4939869;29;20159;-85
2023/01/10 10:53:28;;;;;;;1.33;1.23;;;;;;;-12.93;60.18;101290.50;4941747;29;20526;-85
2023/01/10 10:55:56;;;;;;;1.55;1.45;;;;;;;-12.87;60.27;101292.94;4924308;29;20171;-85
2023/01/10 10:58:24;;;;;;;1.48;1.38;;;;;;;-12.82;60.25;101297.19;4937446;29;20063;-85
2023/01/10 11:00:53;;;;;;;1.55;1.45;;;;;;;-12.82;60.33;101284.19;4937029;29;20056;-85
2023/01/10 11:03:31;;;;;;;1.63;1.52;;;;;;;-12.77;60.41;101296.16;4946946;29;20055;-85
2023/01/10 11:05:59;;;;;;;1.20;1.17;;;;;;;-12.80;60.25;101304.03;4939045;29;20055;-85
2023/01/10 11:08:28;;;;;;;1.70;1.60;;;;;;;-12.80;60.30;101309.25;4938137;28;20056;-84
2023/01/10 11:10:57;;;;;;;1.65;1.55;;;;;;;-12.78;60.25;101314.44;4926798;29;20071;-85
2023/01/10 11:13:33;;;;;;;1.42;1.33;;;;;;;-12.77;60.41;101308.31;4926210;29;20062;-85
2023/01/10 11:16:02;;;;;;;1.60;1.50;;;;;;;-12.73;60.96;101308.19;4941833;29;20052;-86
2023/01/10 11:18:30;;;;;;;1.73;1.63;;;;;;;-12.76;60.36;101308.28;4927892;29;20081;-85
2023/01/10 11:21:12;;;;;;;1.50;1.40;;;;;;;-12.78;60.35;101299.66;4941795;29;20047;-85
2023/01/10 11:23:40;;;;;;;1.58;1.48;;;;;;;-12.71;60.38;101309.03;4944850;28;20052;-86
2023/01/10 11:26:28;;;;;;;1.60;1.50;;;;;;;-12.64;60.65;101301.88;4943379;29;20151;-85
2023/01/10 11:29:17;;;;;;;1.73;1.63;;;;;;;-12.62;60.89;101296.66;4930638;29;20054;-90
2023/01/10 11:31:46;;;;;;;1.60;1.50;;;;;;;-12.71;60.66;101293.41;4928541;29;20046;-86
2023/01/10 11:34:18;;;;;;;1.90;1.80;;;;;;;-12.68;60.49;101292.47;4931599;29;20058;-86
2023/01/10 11:37:03;;;;;;;1.50;1.40;;;;;;;-12.65;60.50;101295.00;4932669;29;20307;-90
2023/01/10 11:39:31;;;;;;;1.73;1.63;;;;;;;-12.60;60.54;101294.88;4885388;29;20517;-87
2023/01/10 11:42:28;;;;;;;1.52;1.42;;;;;;;-12.54;60.26;101290.34;4919328;29;20103;-89
2023/01/10 11:45:16;;;;;;;1.80;1.70;;;;;;;-12.60;60.28;101303.53;4914383;29;20089;-86
2023/01/10 11:47:46;;;;;;;1.70;1.60;;;;;;;-12.61;60.13;101308.75;4921842;29;20463;-87
2023/01/10 11:50:24;;;;;;;1.45;1.35;;;;;;;-12.52;60.50;101329.34;4916169;29;20481;-86